createdAt,value
2023-03-21T00:00:45.517Z,10.60
2023-03-21T00:03:12.446Z,10.65
2023-03-21T00:05:42.384Z,10.75
2023-03-21T00:08:09.761Z,10.91
2023-03-21T00:10:42.245Z,11.01
2023-03-21T00:13:11.094Z,11.04
2023-03-21T00:15:46.176Z,10.83
2023-03-21T00:18:15.868Z,10.73
2023-03-21T00:20:44.249Z,10.71
2023-03-21T00:23:11.013Z,10.75
2023-03-21T00:25:38.134Z,10.70
2023-03-21T00:28:08.631Z,10.74
2023-03-21T00:30:35.664Z,10.69
2023-03-21T00:33:12.053Z,10.55
2023-03-21T00:36:01.719Z,10.42
2023-03-21T00:38:30.037Z,10.31
2023-03-21T00:40:58.276Z,10.29
2023-03-21T00:43:28.632Z,10.32
2023-03-21T00:45:57.433Z,10.28
2023-03-21T00:48:24.920Z,10.25
2023-03-21T00:50:56.227Z,10.26
2023-03-21T00:53:23.779Z,10.27
2023-03-21T00:55:50.741Z,10.33
2023-03-21T00:58:18.613Z,10.38
2023-03-21T01:00:46.007Z,10.45
2023-03-21T01:03:24.393Z,10.43
2023-03-21T01:05:53.559Z,10.41
2023-03-21T01:08:29.324Z,10.48
2023-03-21T01:11:03.946Z,10.58
2023-03-21T01:13:31.870Z,10.64
2023-03-21T01:16:06.916Z,10.59
2023-03-21T01:18:36.866Z,10.52
2023-03-21T01:21:09.878Z,10.53
2023-03-21T01:23:38.238Z,10.46
2023-03-21T01:26:06.244Z,10.34
2023-03-21T01:28:34.108Z,10.30
2023-03-21T01:31:03.860Z,10.31
2023-03-21T01:33:32.080Z,10.25
2023-03-21T01:36:10.251Z,10.19
2023-03-21T01:38:40.969Z,10.22
2023-03-21T01:41:19.976Z,10.23
2023-03-21T01:43:48.529Z,10.17
2023-03-21T01:46:47.850Z,10.13
2023-03-21T01:49:45.511Z,10.15
2023-03-21T01:52:36.605Z,10.16
2023-03-21T01:55:14.214Z,10.23
2023-03-21T01:58:12.304Z,10.32
2023-03-21T02:00:58.552Z,10.45
2023-03-21T02:03:36.264Z,10.43
2023-03-21T02:06:40.042Z,10.51
2023-03-21T02:09:26.354Z,10.51
2023-03-21T02:11:55.834Z,10.46
2023-03-21T02:14:29.530Z,10.53
2023-03-21T02:17:18.824Z,10.67
2023-03-21T02:20:38.736Z,10.73
2023-03-21T02:24:16.199Z,10.60
2023-03-21T02:27:05.089Z,10.55
2023-03-21T02:30:29.621Z,10.48
2023-03-21T02:33:42.397Z,10.48
2023-03-21T02:36:24.676Z,10.43
2023-03-21T02:39:07.003Z,10.35
2023-03-21T02:41:48.078Z,10.32
2023-03-21T02:44:27.379Z,10.30
2023-03-21T02:47:06.336Z,10.33
2023-03-21T02:49:43.694Z,10.34
2023-03-21T02:52:35.672Z,10.38
2023-03-21T02:55:14.607Z,10.37
2023-03-21T02:57:54.666Z,10.42
2023-03-21T03:00:29.052Z,10.44
2023-03-21T03:03:08.132Z,10.54
2023-03-21T03:05:43.402Z,10.53
2023-03-21T03:08:38.534Z,10.56
2023-03-21T03:11:26.052Z,10.60
2023-03-21T03:17:22.991Z,10.71
2023-03-21T03:20:16.966Z,10.74
2023-03-21T03:22:57.864Z,10.82
2023-03-21T03:25:42.525Z,10.88
2023-03-21T03:28:19.715Z,10.90
2023-03-21T03:31:07.131Z,10.91
2023-03-21T03:33:45.769Z,10.86
2023-03-21T03:36:31.090Z,10.81
2023-03-21T03:39:03.782Z,10.77
2023-03-21T03:41:57.708Z,10.70
2023-03-21T03:44:24.630Z,10.63
2023-03-21T03:47:03.778Z,10.55
2023-03-21T03:49:39.467Z,10.41
2023-03-21T03:52:16.064Z,10.16
2023-03-21T03:54:52.490Z,10.10
2023-03-21T03:57:22.277Z,9.93
2023-03-21T03:59:50.759Z,10.01
2023-03-21T04:02:23.176Z,9.91
2023-03-21T04:04:50.581Z,10.01
2023-03-21T04:07:26.259Z,10.03
2023-03-21T04:09:55.369Z,9.84
2023-03-21T04:12:22.370Z,9.78
2023-03-21T04:15:13.302Z,9.84
2023-03-21T04:17:45.048Z,9.75
2023-03-21T04:20:20.759Z,9.77
2023-03-21T04:22:53.931Z,9.83
2023-03-21T04:25:32.610Z,9.96
2023-03-21T04:28:01.070Z,10.09
2023-03-21T04:30:43.434Z,10.22
2023-03-21T04:33:19.225Z,10.28
2023-03-21T04:35:52.741Z,10.29
2023-03-21T04:38:20.094Z,10.37
2023-03-21T04:40:46.932Z,10.42
2023-03-21T04:43:13.734Z,10.45
2023-03-21T04:45:45.079Z,10.47
2023-03-21T04:48:11.999Z,10.44
2023-03-21T04:50:38.970Z,10.48
2023-03-21T04:53:05.889Z,10.55
2023-03-21T04:55:32.698Z,10.56
2023-03-21T04:57:59.643Z,10.54
2023-03-21T05:00:26.789Z,10.61
2023-03-21T05:02:55.015Z,10.64
2023-03-21T05:05:21.973Z,10.67
2023-03-21T05:07:48.921Z,10.69
2023-03-21T05:10:16.047Z,10.69
2023-03-21T05:12:42.930Z,10.64
2023-03-21T05:15:10.466Z,10.42
2023-03-21T05:17:37.867Z,10.32
2023-03-21T05:20:07.882Z,10.32
2023-03-21T05:22:34.908Z,10.26
2023-03-21T05:25:02.274Z,10.06
2023-03-21T05:27:38.107Z,10.00
2023-03-21T05:30:14.013Z,9.82
2023-03-21T05:32:41.825Z,9.80
2023-03-21T05:35:13.133Z,9.83
2023-03-21T05:37:40.418Z,9.77
2023-03-21T05:40:09.557Z,9.88
2023-03-21T05:42:39.023Z,9.80
2023-03-21T05:45:16.595Z,9.84
2023-03-21T05:47:43.817Z,9.99
2023-03-21T05:50:15.015Z,10.14
2023-03-21T05:52:45.248Z,10.28
2023-03-21T05:55:15.147Z,10.35
2023-03-21T05:57:42.934Z,10.43
2023-03-21T06:00:18.858Z,10.48
2023-03-21T06:03:00.844Z,10.51
2023-03-21T06:05:51.869Z,10.60
2023-03-21T06:08:23.846Z,10.64
2023-03-21T06:10:51.199Z,10.20
2023-03-21T06:13:18.580Z,10.22
2023-03-21T06:15:45.532Z,10.38
2023-03-21T06:18:17.364Z,10.41
2023-03-21T06:21:02.651Z,10.37
2023-03-21T06:23:30.463Z,9.99
2023-03-21T06:25:58.014Z,10.13
2023-03-21T06:28:26.462Z,10.00
2023-03-21T06:30:53.680Z,10.06
2023-03-21T06:33:24.605Z,10.27
2023-03-21T06:35:52.761Z,10.23
2023-03-21T06:38:21.826Z,9.97
2023-03-21T06:40:49.834Z,10.02
2023-03-21T06:43:17.551Z,9.96
2023-03-21T06:45:47.265Z,9.92
2023-03-21T06:48:15.260Z,10.30
2023-03-21T06:50:53.782Z,10.34
2023-03-21T06:53:32.169Z,10.46
2023-03-21T06:56:25.944Z,10.61
2023-03-21T06:58:59.795Z,10.89
2023-03-21T07:01:48.550Z,12.00
2023-03-21T07:04:26.354Z,12.70
2023-03-21T07:06:58.237Z,13.87
2023-03-21T07:09:31.979Z,15.41
2023-03-21T07:12:06.424Z,15.94
2023-03-21T07:15:09.842Z,17.06
2023-03-21T07:17:38.126Z,17.17
2023-03-21T07:20:10.902Z,17.26
2023-03-21T07:22:44.912Z,16.71
2023-03-21T07:25:14.038Z,15.63
2023-03-21T07:27:46.876Z,15.99
2023-03-21T07:30:19.971Z,16.85
2023-03-21T07:32:58.784Z,16.96
2023-03-21T07:35:28.451Z,18.36
2023-03-21T07:37:56.169Z,18.63
2023-03-21T07:40:28.370Z,19.59
2023-03-21T07:42:56.124Z,19.54
2023-03-21T07:45:37.291Z,17.20
2023-03-21T07:48:08.599Z,19.51
2023-03-21T07:50:37.292Z,18.38
2023-03-21T07:53:10.486Z,18.10
2023-03-21T07:55:44.251Z,18.65
2023-03-21T07:58:11.283Z,16.66
2023-03-21T08:00:38.496Z,16.83
2023-03-21T08:03:05.388Z,15.08
2023-03-21T08:05:36.195Z,15.02
2023-03-21T08:08:04.650Z,15.62
2023-03-21T08:10:31.472Z,16.52
2023-03-21T08:13:00.837Z,18.20
2023-03-21T08:15:31.830Z,17.65
2023-03-21T08:18:00.029Z,17.20
2023-03-21T08:20:27.882Z,17.71
2023-03-21T08:22:54.904Z,16.30
2023-03-21T08:25:23.094Z,17.15
2023-03-21T08:27:51.513Z,19.36
2023-03-21T08:30:28.093Z,20.66
2023-03-21T08:33:00.523Z,22.29
2023-03-21T08:35:28.902Z,23.06
2023-03-21T08:37:59.257Z,24.25
2023-03-21T08:40:26.241Z,24.66
2023-03-21T08:42:53.217Z,23.33
2023-03-21T08:45:21.811Z,22.54
2023-03-21T08:47:50.758Z,24.29
2023-03-21T08:50:20.087Z,25.37
2023-03-21T08:52:52.064Z,25.21
2023-03-21T08:55:19.472Z,23.78
2023-03-21T08:57:46.817Z,22.82
2023-03-21T09:00:17.285Z,22.55
2023-03-21T09:02:49.695Z,22.54
2023-03-21T09:05:17.156Z,22.77
2023-03-21T09:07:45.354Z,22.67
2023-03-21T09:10:20.745Z,21.40
2023-03-21T09:12:49.777Z,21.22
2023-03-21T09:15:16.901Z,19.48
2023-03-21T09:17:45.244Z,18.78
2023-03-21T09:20:13.728Z,18.88
2023-03-21T09:22:42.738Z,18.74
2023-03-21T09:25:09.886Z,18.69
2023-03-21T09:27:37.983Z,18.60
2023-03-21T09:30:07.946Z,19.62
2023-03-21T09:32:34.887Z,20.36
2023-03-21T09:35:03.361Z,20.89
2023-03-21T09:37:30.179Z,18.62
2023-03-21T09:39:57.050Z,19.63
2023-03-21T09:42:42.528Z,20.13
2023-03-21T09:45:19.190Z,20.79
2023-03-21T09:47:48.979Z,20.77
2023-03-21T09:50:22.632Z,20.21
2023-03-21T09:52:57.010Z,20.60
2023-03-21T09:55:27.427Z,20.66
2023-03-21T09:58:06.663Z,19.93
2023-03-21T10:00:43.971Z,17.89
2023-03-21T10:03:20.272Z,18.32
2023-03-21T10:05:49.425Z,19.62
2023-03-21T10:08:24.766Z,19.39
2023-03-21T10:10:56.573Z,20.16
2023-03-21T10:13:27.954Z,20.49
2023-03-21T10:15:57.312Z,21.00
2023-03-21T10:18:30.676Z,20.68
2023-03-21T10:21:00.014Z,20.32
2023-03-21T10:23:29.784Z,19.89
2023-03-21T10:26:01.112Z,20.09
2023-03-21T10:28:46.097Z,19.24
2023-03-21T10:31:22.996Z,19.08
2023-03-21T10:33:51.344Z,19.90
2023-03-21T10:36:23.094Z,20.45
2023-03-21T10:38:54.749Z,20.92
2023-03-21T10:41:22.903Z,21.39
2023-03-21T10:44:08.252Z,21.09
2023-03-21T10:46:36.325Z,21.22
2023-03-21T10:49:07.504Z,21.38
2023-03-21T10:51:39.318Z,21.13
2023-03-21T10:54:13.736Z,20.35
2023-03-21T10:56:57.537Z,18.81
2023-03-21T10:59:33.203Z,18.82
2023-03-21T11:02:05.377Z,19.25
2023-03-21T11:04:33.929Z,19.67
2023-03-21T11:07:06.094Z,19.91
2023-03-21T11:09:46.998Z,19.71
2023-03-21T11:12:16.966Z,18.66
2023-03-21T11:14:46.898Z,17.73
2023-03-21T11:17:24.930Z,17.87
2023-03-21T11:19:54.101Z,18.34
2023-03-21T11:22:25.624Z,17.97
2023-03-21T11:24:59.058Z,18.32
2023-03-21T11:27:28.833Z,18.59
2023-03-21T11:29:58.544Z,18.80
2023-03-21T11:32:33.447Z,18.67
2023-03-21T11:35:04.481Z,18.94
2023-03-21T11:37:39.771Z,18.75
2023-03-21T11:40:20.561Z,18.58
2023-03-21T11:42:49.965Z,17.83
2023-03-21T11:45:21.311Z,17.38
2023-03-21T11:47:51.554Z,17.28
2023-03-21T11:50:27.481Z,17.30
2023-03-21T11:53:17.481Z,17.55
2023-03-21T11:56:03.867Z,17.81
2023-03-21T11:58:46.531Z,17.48
2023-03-21T12:01:26.567Z,17.41
2023-03-21T12:04:04.216Z,17.63
2023-03-21T12:06:37.631Z,17.49
2023-03-21T12:09:29.533Z,16.22
2023-03-21T12:12:16.729Z,16.60
2023-03-21T12:15:00.021Z,16.67
2023-03-21T12:17:44.310Z,16.57
2023-03-21T12:20:30.268Z,16.74
2023-03-21T12:23:21.287Z,16.78
2023-03-21T12:25:57.238Z,17.04
2023-03-21T12:28:46.551Z,17.29
2023-03-21T12:31:27.278Z,17.46
2023-03-21T12:34:19.493Z,17.56
2023-03-21T12:37:05.621Z,17.68
2023-03-21T12:39:37.205Z,17.74
2023-03-21T12:42:41.186Z,17.85
2023-03-21T12:45:19.010Z,17.81
2023-03-21T12:47:53.074Z,17.84
2023-03-21T12:50:26.086Z,17.92
2023-03-21T12:52:59.821Z,18.02
2023-03-21T12:55:31.790Z,18.08
2023-03-21T12:58:05.494Z,18.13
2023-03-21T13:00:42.278Z,18.23
2023-03-21T13:03:15.802Z,18.36
2023-03-21T13:05:50.515Z,18.44
2023-03-21T13:08:27.166Z,18.53
2023-03-21T13:10:59.008Z,18.46
2023-03-21T13:13:37.251Z,18.17
2023-03-21T13:16:12.613Z,18.01
2023-03-21T13:19:00.048Z,17.96
2023-03-21T13:21:50.205Z,18.06
2023-03-21T13:24:28.245Z,18.19
2023-03-21T13:27:03.952Z,18.27
2023-03-21T13:29:44.608Z,18.18
2023-03-21T13:32:25.421Z,18.12
2023-03-21T13:35:00.093Z,17.98
2023-03-21T13:37:32.507Z,18.00
2023-03-21T13:40:06.235Z,18.01
2023-03-21T13:42:33.905Z,18.02
2023-03-21T13:45:11.021Z,17.95
2023-03-21T13:47:50.747Z,17.80
2023-03-21T13:50:34.842Z,17.71
2023-03-21T13:53:32.316Z,17.79
2023-03-21T13:56:24.459Z,17.83
2023-03-21T13:59:11.474Z,17.86
2023-03-21T14:01:59.544Z,17.93
2023-03-21T14:04:41.881Z,17.93
2023-03-21T14:07:28.176Z,17.88
2023-03-21T14:10:04.412Z,17.86
2023-03-21T14:12:39.808Z,17.83
2023-03-21T14:15:18.079Z,17.79
2023-03-21T14:17:54.048Z,17.49
2023-03-21T14:20:25.356Z,17.45
2023-03-21T14:22:52.669Z,17.50
2023-03-21T14:25:24.329Z,17.46
2023-03-21T14:27:55.726Z,17.32
2023-03-21T14:30:27.138Z,17.25
2023-03-21T14:32:58.620Z,17.38
2023-03-21T14:35:30.458Z,17.42
2023-03-21T14:38:01.390Z,17.54
2023-03-21T14:40:29.607Z,17.60
2023-03-21T14:42:56.650Z,17.63
2023-03-21T14:45:28.207Z,17.61
2023-03-21T14:47:59.630Z,17.53
2023-03-21T14:50:38.649Z,17.48
2023-03-21T14:53:07.013Z,17.40
2023-03-21T14:55:42.398Z,17.33
2023-03-21T14:58:13.943Z,17.20
2023-03-21T15:00:41.173Z,17.15
2023-03-21T15:03:12.937Z,16.90
2023-03-21T15:05:42.540Z,16.91
2023-03-21T15:08:15.862Z,16.98
2023-03-21T15:11:06.130Z,17.09
2023-03-21T15:13:37.624Z,17.05
2023-03-21T15:16:06.129Z,17.03
2023-03-21T15:18:39.760Z,17.09
2023-03-21T15:21:15.876Z,17.09
2023-03-21T15:23:46.518Z,16.84
2023-03-21T15:26:16.513Z,16.86
2023-03-21T15:28:46.392Z,16.83
2023-03-21T15:31:23.570Z,16.86
2023-03-21T15:33:55.451Z,16.83
2023-03-21T15:36:27.296Z,16.79
2023-03-21T15:38:55.615Z,16.71
2023-03-21T15:41:29.694Z,16.66
2023-03-21T15:44:11.236Z,16.55
2023-03-21T15:46:43.710Z,16.50
2023-03-21T15:49:24.196Z,16.40
2023-03-21T15:51:56.169Z,16.34
2023-03-21T15:54:28.370Z,16.33
2023-03-21T15:56:59.064Z,16.35
2023-03-21T15:59:32.831Z,16.36
2023-03-21T16:02:01.316Z,16.39
2023-03-21T16:04:29.776Z,16.40
2023-03-21T16:07:00.830Z,16.37
2023-03-21T16:09:37.820Z,16.29
2023-03-21T16:12:12.012Z,16.21
2023-03-21T16:14:39.322Z,16.16
2023-03-21T16:17:25.949Z,16.09
2023-03-21T16:19:54.743Z,16.05
2023-03-21T16:22:22.293Z,16.04
2023-03-21T16:24:49.432Z,16.02
2023-03-21T16:27:20.510Z,15.94
2023-03-21T16:29:48.759Z,15.87
2023-03-21T16:32:17.608Z,15.74
2023-03-21T16:34:44.584Z,15.45
2023-03-21T16:37:13.786Z,15.31
2023-03-21T16:39:41.375Z,15.14
2023-03-21T16:42:11.110Z,14.97
2023-03-21T16:44:37.985Z,14.71
2023-03-21T16:47:13.369Z,14.54
2023-03-21T16:49:40.203Z,14.52
2023-03-21T16:52:07.192Z,14.60
2023-03-21T16:54:35.306Z,14.59
2023-03-21T16:57:02.818Z,14.60
2023-03-21T16:59:30.101Z,14.66
2023-03-21T17:01:57.346Z,14.67
2023-03-21T17:04:24.164Z,14.70
2023-03-21T17:06:53.760Z,14.59
2023-03-21T17:09:24.676Z,14.59
2023-03-21T17:11:52.930Z,14.63
2023-03-21T17:14:19.760Z,14.59
2023-03-21T17:16:46.987Z,14.56
2023-03-21T17:19:18.111Z,14.61
2023-03-21T17:21:45.546Z,14.63
2023-03-21T17:24:12.986Z,14.63
2023-03-21T17:26:40.580Z,14.64
2023-03-21T17:29:14.224Z,14.69
2023-03-21T17:31:41.522Z,14.59
2023-03-21T17:34:08.618Z,14.39
2023-03-21T17:36:38.283Z,14.28
2023-03-21T17:39:08.370Z,14.07
2023-03-21T17:41:35.623Z,14.01
2023-03-21T17:44:02.503Z,14.01
2023-03-21T17:46:36.230Z,14.18
2023-03-21T17:49:03.807Z,14.24
2023-03-21T17:51:31.634Z,14.29
2023-03-21T17:53:59.555Z,14.29
2023-03-21T17:56:29.187Z,14.33
2023-03-21T17:58:57.900Z,14.41
2023-03-21T18:01:24.856Z,14.38
2023-03-21T18:03:54.057Z,14.44
2023-03-21T18:06:27.288Z,14.52
2023-03-21T18:08:55.391Z,14.46
2023-03-21T18:11:24.388Z,14.44
2023-03-21T18:13:51.484Z,14.03
2023-03-21T18:16:22.048Z,13.64
2023-03-21T18:18:49.378Z,13.46
2023-03-21T18:21:20.232Z,13.34
2023-03-21T18:23:47.975Z,13.31
2023-03-21T18:26:18.963Z,13.43
2023-03-21T18:28:47.143Z,13.59
2023-03-21T18:31:20.536Z,13.77
2023-03-21T18:33:49.493Z,13.91
2023-03-21T18:36:25.392Z,14.01
2023-03-21T18:38:55.256Z,14.05
2023-03-21T18:41:22.184Z,14.11
2023-03-21T18:44:14.725Z,14.08
2023-03-21T18:46:36.740Z,14.00
2023-03-21T18:49:33.517Z,14.07
2023-03-21T18:51:52.453Z,14.06
2023-03-21T18:54:19.615Z,14.10
2023-03-21T18:59:33.940Z,14.05
2023-03-21T19:02:02.085Z,14.11
2023-03-21T19:04:30.484Z,14.13
2023-03-21T19:06:59.980Z,14.13
2023-03-21T19:09:30.931Z,14.11
2023-03-21T19:11:58.407Z,14.12
2023-03-21T19:14:25.259Z,14.05
2023-03-21T19:19:39.295Z,13.65
2023-03-21T19:22:07.575Z,13.69
2023-03-21T19:24:34.983Z,13.75
2023-03-21T19:27:02.135Z,13.37
2023-03-21T19:29:29.053Z,13.22
2023-03-21T19:31:55.944Z,13.11
2023-03-21T19:34:23.441Z,12.85
2023-03-21T19:36:51.964Z,12.77
2023-03-21T19:39:21.238Z,12.82
2023-03-21T19:41:48.509Z,12.91
2023-03-21T19:44:19.799Z,13.04
2023-03-21T19:46:46.832Z,13.12
2023-03-21T19:49:13.882Z,13.00
2023-03-21T19:51:40.711Z,12.81
2023-03-21T19:54:07.716Z,12.74
2023-03-21T19:56:37.594Z,12.57
2023-03-21T19:59:06.896Z,12.52
2023-03-21T20:01:33.715Z,12.45
2023-03-21T20:04:00.583Z,12.54
2023-03-21T20:06:27.855Z,12.57
2023-03-21T20:09:37.970Z,12.68
2023-03-21T20:11:43.465Z,12.80
2023-03-21T20:14:10.392Z,12.93
2023-03-21T20:16:37.512Z,12.96
2023-03-21T20:19:05.355Z,13.04
2023-03-21T20:21:44.498Z,13.12
2023-03-21T20:24:14.947Z,13.04
2023-03-21T20:26:44.038Z,12.99
2023-03-21T20:30:00.178Z,12.99
2023-03-21T20:31:57.988Z,13.04
2023-03-21T20:34:25.027Z,13.13
2023-03-21T20:36:52.146Z,13.16
2023-03-21T20:39:18.932Z,13.20
2023-03-21T20:41:49.028Z,13.26
2023-03-21T20:47:03.965Z,13.35
2023-03-21T20:49:30.916Z,13.39
2023-03-21T20:54:44.723Z,13.45
2023-03-21T20:57:12.939Z,13.43
2023-03-21T20:59:40.372Z,13.39
2023-03-21T21:02:07.181Z,13.40
2023-03-21T21:04:49.709Z,13.40
2023-03-21T21:07:23.738Z,13.37
2023-03-21T21:09:50.486Z,13.32
2023-03-21T21:12:18.664Z,13.31
2023-03-21T21:14:45.681Z,12.98
2023-03-21T21:17:50.945Z,12.64
2023-03-21T21:19:59.573Z,12.35
2023-03-21T21:22:26.486Z,12.33
2023-03-21T21:24:53.302Z,12.28
2023-03-21T21:27:21.839Z,12.33
2023-03-21T21:29:48.712Z,12.37
2023-03-21T21:32:15.505Z,12.36
2023-03-21T21:34:42.680Z,12.22
2023-03-21T21:37:09.779Z,12.26
2023-03-21T21:39:36.548Z,12.30
2023-03-21T21:42:03.802Z,12.33
2023-03-21T21:44:32.243Z,12.20
2023-03-21T21:46:59.258Z,12.18
2023-03-21T21:49:26.709Z,12.22
2023-03-21T21:51:53.503Z,12.27
2023-03-21T21:54:20.440Z,12.30
2023-03-21T21:56:47.461Z,12.32
2023-03-21T21:59:14.800Z,12.35
2023-03-21T22:01:43.345Z,12.37
2023-03-21T22:04:10.205Z,11.93
2023-03-21T22:06:37.690Z,11.72
2023-03-21T22:09:05.573Z,11.81
2023-03-21T22:11:33.105Z,11.15
2023-03-21T22:14:00.001Z,11.22
2023-03-21T22:16:27.220Z,11.37
2023-03-21T22:18:55.360Z,11.45
2023-03-21T22:21:22.367Z,11.49
2023-03-21T22:23:49.156Z,11.59
2023-03-21T22:26:16.310Z,11.50
2023-03-21T22:28:43.645Z,11.47
2023-03-21T22:31:14.503Z,11.28
2023-03-21T22:33:41.428Z,11.08
2023-03-21T22:36:11.331Z,11.03
2023-03-21T22:38:38.321Z,10.99
2023-03-21T22:41:06.850Z,10.98
2023-03-21T22:43:34.552Z,10.92
2023-03-21T22:46:02.531Z,10.98
2023-03-21T22:48:30.117Z,10.99
2023-03-21T22:50:57.606Z,10.99
2023-03-21T22:53:26.043Z,11.08
2023-03-21T22:55:52.995Z,11.14
2023-03-21T22:58:19.945Z,11.22
2023-03-21T23:00:47.502Z,11.27
2023-03-21T23:03:15.193Z,11.36
2023-03-21T23:05:42.979Z,11.32
2023-03-21T23:08:10.041Z,11.19
2023-03-21T23:10:39.808Z,10.98
2023-03-21T23:13:06.872Z,10.97
2023-03-21T23:15:34.027Z,11.00
2023-03-21T23:18:01.066Z,11.02
2023-03-21T23:20:28.032Z,10.99
2023-03-21T23:22:54.943Z,11.06
2023-03-21T23:25:21.920Z,11.07
2023-03-21T23:27:50.479Z,11.05
2023-03-21T23:30:17.548Z,11.02
2023-03-21T23:32:44.623Z,11.08
2023-03-21T23:35:11.479Z,11.08
2023-03-21T23:37:38.840Z,10.90
2023-03-21T23:40:07.259Z,10.73
2023-03-21T23:42:34.059Z,10.70
2023-03-21T23:45:02.246Z,10.60
2023-03-21T23:47:29.215Z,10.57
2023-03-21T23:49:56.276Z,10.52
2023-03-21T23:52:23.480Z,10.55
2023-03-21T23:54:50.346Z,10.61
2023-03-21T23:57:17.214Z,10.72
2023-03-21T23:59:44.497Z,10.80
